sensor_id;sensor_type;location;lat;lon;timestamp;temperature;humidity
22299;DHT22;11317;51.072;17.036;2022-08-04T00:01:11;20.40;1.00
22299;DHT22;11317;51.072;17.036;2022-08-04T00:04:00;19.80;1.00
22299;DHT22;11317;51.072;17.036;2022-08-04T00:06:37;20.30;1.00
22299;DHT22;11317;51.072;17.036;2022-08-04T00:09:15;20.20;1.00
22299;DHT22;11317;51.072;17.036;2022-08-04T00:11:44;19.90;1.00
22299;DHT22;11317;51.072;17.036;2022-08-04T00:14:13;20.10;6.30
22299;DHT22;11317;51.072;17.036;2022-08-04T00:16:41;20.10;39.40
22299;DHT22;11317;51.072;17.036;2022-08-04T00:19:15;20.30;1.00
22299;DHT22;11317;51.072;17.036;2022-08-04T00:21:45;20.10;1.00
22299;DHT22;11317;51.072;17.036;2022-08-04T00:24:13;20.20;1.00
22299;DHT22;11317;51.072;17.036;2022-08-04T00:26:40;20.10;1.00
22299;DHT22;11317;51.072;17.036;2022-08-04T00:31:32;19.90;7.20
22299;DHT22;11317;51.072;17.036;2022-08-04T00:33:58;20.20;99.90
22299;DHT22;11317;51.072;17.036;2022-08-04T00:36:25;20.10;1.00
22299;DHT22;11317;51.072;17.036;2022-08-04T00:38:53;19.90;1.00
22299;DHT22;11317;51.072;17.036;2022-08-04T00:44:00;19.80;1.00
22299;DHT22;11317;51.072;17.036;2022-08-04T00:47:07;19.70;1.00
22299;DHT22;11317;51.072;17.036;2022-08-04T01:00:16;19.80;1.00
22299;DHT22;11317;51.072;17.036;2022-08-04T01:03:21;19.60;1.00
22299;DHT22;11317;51.072;17.036;2022-08-04T01:08:44;19.50;1.00
22299;DHT22;11317;51.072;17.036;2022-08-04T01:18:45;19.30;1.00
22299;DHT22;11317;51.072;17.036;2022-08-04T01:29:58;18.60;1.00
22299;DHT22;11317;51.072;17.036;2022-08-04T01:32:38;19.00;1.00
22299;DHT22;11317;51.072;17.036;2022-08-04T01:35:27;19.20;1.00
22299;DHT22;11317;51.072;17.036;2022-08-04T01:40:44;19.00;91.50
22299;DHT22;11317;51.072;17.036;2022-08-04T01:45:36;18.80;1.00
22299;DHT22;11317;51.072;17.036;2022-08-04T01:48:03;18.80;1.00
22299;DHT22;11317;51.072;17.036;2022-08-04T01:50:32;18.90;1.00
22299;DHT22;11317;51.072;17.036;2022-08-04T01:52:59;18.40;99.90
22299;DHT22;11317;51.072;17.036;2022-08-04T01:55:28;18.80;1.00
22299;DHT22;11317;51.072;17.036;2022-08-04T01:57:57;18.70;1.00
22299;DHT22;11317;51.072;17.036;2022-08-04T02:00:26;18.70;99.90
22299;DHT22;11317;51.072;17.036;2022-08-04T02:02:53;18.70;99.90
22299;DHT22;11317;51.072;17.036;2022-08-04T02:05:25;18.70;99.90
22299;DHT22;11317;51.072;17.036;2022-08-04T02:20:41;18.60;1.00
22299;DHT22;11317;51.072;17.036;2022-08-04T02:23:13;18.60;99.90
22299;DHT22;11317;51.072;17.036;2022-08-04T02:25:45;18.60;1.00
22299;DHT22;11317;51.072;17.036;2022-08-04T02:28:21;18.40;1.00
22299;DHT22;11317;51.072;17.036;2022-08-04T02:33:42;18.40;1.00
22299;DHT22;11317;51.072;17.036;2022-08-04T02:36:16;18.40;99.90
22299;DHT22;11317;51.072;17.036;2022-08-04T02:41:15;18.30;1.00
22299;DHT22;11317;51.072;17.036;2022-08-04T02:43:43;18.00;1.00
22299;DHT22;11317;51.072;17.036;2022-08-04T02:48:39;18.30;1.00
22299;DHT22;11317;51.072;17.036;2022-08-04T02:51:10;18.30;99.90
22299;DHT22;11317;51.072;17.036;2022-08-04T02:53:38;18.30;1.00
22299;DHT22;11317;51.072;17.036;2022-08-04T02:56:06;18.20;1.00
22299;DHT22;11317;51.072;17.036;2022-08-04T02:58:34;21.20;1.00
22299;DHT22;11317;51.072;17.036;2022-08-04T03:01:02;18.10;1.00
22299;DHT22;11317;51.072;17.036;2022-08-04T03:03:50;18.10;7.70
22299;DHT22;11317;51.072;17.036;2022-08-04T03:09:50;18.00;99.90
22299;DHT22;11317;51.072;17.036;2022-08-04T03:15:41;18.00;99.90
22299;DHT22;11317;51.072;17.036;2022-08-04T03:18:55;17.90;99.90
22299;DHT22;11317;51.072;17.036;2022-08-04T03:30:12;17.60;99.90
22299;DHT22;11317;51.072;17.036;2022-08-04T03:35:35;17.60;1.00
22299;DHT22;11317;51.072;17.036;2022-08-04T03:46:31;17.80;1.00
22299;DHT22;11317;51.072;17.036;2022-08-04T03:57:51;17.90;1.00
22299;DHT22;11317;51.072;17.036;2022-08-04T04:00:19;17.90;1.00
22299;DHT22;11317;51.072;17.036;2022-08-04T04:17:27;18.60;1.00
22299;DHT22;11317;51.072;17.036;2022-08-04T04:23:00;18.20;1.00
22299;DHT22;11317;51.072;17.036;2022-08-04T04:33:43;18.10;1.00
22299;DHT22;11317;51.072;17.036;2022-08-04T04:36:23;18.40;99.90
22299;DHT22;11317;51.072;17.036;2022-08-04T04:38:59;18.50;99.90
22299;DHT22;11317;51.072;17.036;2022-08-04T04:41:58;18.40;99.90
22299;DHT22;11317;51.072;17.036;2022-08-04T04:52:46;18.30;99.90
22299;DHT22;11317;51.072;17.036;2022-08-04T04:55:20;18.60;1.00
22299;DHT22;11317;51.072;17.036;2022-08-04T04:57:49;18.70;1.00
22299;DHT22;11317;51.072;17.036;2022-08-04T05:00:16;18.40;1.00
22299;DHT22;11317;51.072;17.036;2022-08-04T05:11:40;19.10;1.00
22299;DHT22;11317;51.072;17.036;2022-08-04T05:14:33;19.20;1.00
22299;DHT22;11317;51.072;17.036;2022-08-04T05:22:29;19.30;1.00
22299;DHT22;11317;51.072;17.036;2022-08-04T05:27:50;19.60;99.90
22299;DHT22;11317;51.072;17.036;2022-08-04T05:30:22;19.70;1.00
22299;DHT22;11317;51.072;17.036;2022-08-04T05:33:03;19.80;99.90
22299;DHT22;11317;51.072;17.036;2022-08-04T05:35:33;20.20;1.00
22299;DHT22;11317;51.072;17.036;2022-08-04T05:38:01;20.00;99.90
22299;DHT22;11317;51.072;17.036;2022-08-04T05:40:28;20.10;1.00
22299;DHT22;11317;51.072;17.036;2022-08-04T05:42:55;20.30;1.00
22299;DHT22;11317;51.072;17.036;2022-08-04T05:50:14;20.50;99.90
22299;DHT22;11317;51.072;17.036;2022-08-04T05:52:41;20.80;1.00
22299;DHT22;11317;51.072;17.036;2022-08-04T05:55:08;20.90;1.00
22299;DHT22;11317;51.072;17.036;2022-08-04T05:57:41;21.10;1.00
22299;DHT22;11317;51.072;17.036;2022-08-04T06:00:08;21.20;1.00
22299;DHT22;11317;51.072;17.036;2022-08-04T06:05:00;21.60;99.90
22299;DHT22;11317;51.072;17.036;2022-08-04T06:12:29;22.10;99.90
22299;DHT22;11317;51.072;17.036;2022-08-04T06:14:56;22.20;99.90
22299;DHT22;11317;51.072;17.036;2022-08-04T06:17:30;22.50;99.90
22299;DHT22;11317;51.072;17.036;2022-08-04T06:19:57;23.00;1.00
22299;DHT22;11317;51.072;17.036;2022-08-04T06:22:24;23.00;99.90
22299;DHT22;11317;51.072;17.036;2022-08-04T06:24:54;23.20;1.00
22299;DHT22;11317;51.072;17.036;2022-08-04T06:27:19;23.60;1.00
22299;DHT22;11317;51.072;17.036;2022-08-04T06:29:48;24.00;99.90
22299;DHT22;11317;51.072;17.036;2022-08-04T06:32:15;24.20;99.90
22299;DHT22;11317;51.072;17.036;2022-08-04T06:35:02;24.70;1.00
22299;DHT22;11317;51.072;17.036;2022-08-04T06:39:54;25.40;1.00
22299;DHT22;11317;51.072;17.036;2022-08-04T06:42:23;25.70;1.00
22299;DHT22;11317;51.072;17.036;2022-08-04T06:44:51;26.00;1.00
22299;DHT22;11317;51.072;17.036;2022-08-04T06:47:18;26.40;1.00
22299;DHT22;11317;51.072;17.036;2022-08-04T06:49:48;25.80;1.00
22299;DHT22;11317;51.072;17.036;2022-08-04T06:52:16;27.00;1.00
22299;DHT22;11317;51.072;17.036;2022-08-04T06:54:47;27.40;1.00
22299;DHT22;11317;51.072;17.036;2022-08-04T06:57:15;27.70;99.90
22299;DHT22;11317;51.072;17.036;2022-08-04T06:59:43;28.20;1.00
22299;DHT22;11317;51.072;17.036;2022-08-04T07:02:13;28.60;99.90
22299;DHT22;11317;51.072;17.036;2022-08-04T07:04:41;28.90;99.90
22299;DHT22;11317;51.072;17.036;2022-08-04T07:11:59;30.20;99.90
22299;DHT22;11317;51.072;17.036;2022-08-04T07:14:26;29.60;1.00
22299;DHT22;11317;51.072;17.036;2022-08-04T07:16:53;30.60;99.90
22299;DHT22;11317;51.072;17.036;2022-08-04T07:24:12;32.20;99.90
22299;DHT22;11317;51.072;17.036;2022-08-04T07:31:30;34.50;99.90
22299;DHT22;11317;51.072;17.036;2022-08-04T07:33:57;34.90;99.90
22299;DHT22;11317;51.072;17.036;2022-08-04T07:38:51;37.30;1.00
22299;DHT22;11317;51.072;17.036;2022-08-04T07:41:21;36.70;99.90
22299;DHT22;11317;51.072;17.036;2022-08-04T07:43:48;37.00;99.90
22299;DHT22;11317;51.072;17.036;2022-08-04T07:46:14;37.20;99.90
22299;DHT22;11317;51.072;17.036;2022-08-04T07:48:40;37.60;99.90
22299;DHT22;11317;51.072;17.036;2022-08-04T07:51:05;38.30;98.80
22299;DHT22;11317;51.072;17.036;2022-08-04T07:53:31;37.80;94.40
22299;DHT22;11317;51.072;17.036;2022-08-04T07:55:59;37.40;97.20
22299;DHT22;11317;51.072;17.036;2022-08-04T07:58:24;38.60;96.30
22299;DHT22;11317;51.072;17.036;2022-08-04T08:00:52;39.00;90.70
22299;DHT22;11317;51.072;17.036;2022-08-04T08:03:19;39.20;88.90
22299;DHT22;11317;51.072;17.036;2022-08-04T08:05:45;40.00;85.40
22299;DHT22;11317;51.072;17.036;2022-08-04T08:08:11;39.80;75.70
22299;DHT22;11317;51.072;17.036;2022-08-04T08:10:37;39.10;70.40
22299;DHT22;11317;51.072;17.036;2022-08-04T08:13:06;38.30;74.80
22299;DHT22;11317;51.072;17.036;2022-08-04T08:15:34;39.30;73.30
22299;DHT22;11317;51.072;17.036;2022-08-04T08:18:01;39.70;69.40
22299;DHT22;11317;51.072;17.036;2022-08-04T08:20:28;40.30;66.30
22299;DHT22;11317;51.072;17.036;2022-08-04T08:22:54;39.50;57.70
22299;DHT22;11317;51.072;17.036;2022-08-04T08:25:20;38.50;59.80
22299;DHT22;11317;51.072;17.036;2022-08-04T08:27:45;38.80;63.40
22299;DHT22;11317;51.072;17.036;2022-08-04T08:30:11;39.70;58.20
22299;DHT22;11317;51.072;17.036;2022-08-04T08:32:37;39.70;53.80
22299;DHT22;11317;51.072;17.036;2022-08-04T08:35:03;40.50;55.10
22299;DHT22;11317;51.072;17.036;2022-08-04T08:37:37;40.90;49.30
22299;DHT22;11317;51.072;17.036;2022-08-04T08:40:34;40.40;46.30
22299;DHT22;11317;51.072;17.036;2022-08-04T08:43:31;39.30;47.60
22299;DHT22;11317;51.072;17.036;2022-08-04T08:54:40;41.90;37.90
22299;DHT22;11317;51.072;17.036;2022-08-04T09:00:06;42.40;54.30
22299;DHT22;11317;51.072;17.036;2022-08-04T09:19:07;43.20;23.00
22299;DHT22;11317;51.072;17.036;2022-08-04T09:24:24;43.80;17.80
22299;DHT22;11317;51.072;17.036;2022-08-04T09:27:02;42.80;18.70
22299;DHT22;11317;51.072;17.036;2022-08-04T09:29:39;42.30;18.80
22299;DHT22;11317;51.072;17.036;2022-08-04T09:40:57;44.00;11.90
22299;DHT22;11317;51.072;17.036;2022-08-04T09:46:23;43.70;10.60
22299;DHT22;11317;51.072;17.036;2022-08-04T09:49:16;44.10;11.60
22299;DHT22;11317;51.072;17.036;2022-08-04T09:56:57;44.00;8.20
22299;DHT22;11317;51.072;17.036;2022-08-04T10:02:23;44.40;4.20
22299;DHT22;11317;51.072;17.036;2022-08-04T10:04:52;44.70;5.40
22299;DHT22;11317;51.072;17.036;2022-08-04T10:07:43;43.60;2.90
22299;DHT22;11317;51.072;17.036;2022-08-04T10:10:17;43.30;4.00
22299;DHT22;11317;51.072;17.036;2022-08-04T10:18:29;43.50;1.80
22299;DHT22;11317;51.072;17.036;2022-08-04T10:24:26;44.30;1.80
22299;DHT22;11317;51.072;17.036;2022-08-04T10:29:43;43.70;1.00
22299;DHT22;11317;51.072;17.036;2022-08-04T10:32:40;44.60;1.00
22299;DHT22;11317;51.072;17.036;2022-08-04T10:35:17;44.10;1.00
22299;DHT22;11317;51.072;17.036;2022-08-04T10:37:49;42.70;1.00
22299;DHT22;11317;51.072;17.036;2022-08-04T10:43:06;42.90;1.00
22299;DHT22;11317;51.072;17.036;2022-08-04T10:45:44;43.60;1.00
22299;DHT22;11317;51.072;17.036;2022-08-04T10:48:40;43.90;1.00
22299;DHT22;11317;51.072;17.036;2022-08-04T10:51:35;43.50;1.00
22299;DHT22;11317;51.072;17.036;2022-08-04T10:54:07;44.10;1.00
22299;DHT22;11317;51.072;17.036;2022-08-04T10:56:43;44.10;1.00
22299;DHT22;11317;51.072;17.036;2022-08-04T10:59:25;44.20;1.00
22299;DHT22;11317;51.072;17.036;2022-08-04T11:01:58;43.10;1.00
22299;DHT22;11317;51.072;17.036;2022-08-04T11:05:10;42.30;1.00
22299;DHT22;11317;51.072;17.036;2022-08-04T11:07:38;41.10;1.00
22299;DHT22;11317;51.072;17.036;2022-08-04T11:10:07;40.30;1.00
22299;DHT22;11317;51.072;17.036;2022-08-04T11:12:34;39.60;18.90
22299;DHT22;11317;51.072;17.036;2022-08-04T11:15:05;38.10;4.00
22299;DHT22;11317;51.072;17.036;2022-08-04T11:17:37;37.60;5.50
22299;DHT22;11317;51.072;17.036;2022-08-04T11:20:26;37.00;8.50
22299;DHT22;11317;51.072;17.036;2022-08-04T11:23:05;36.50;9.50
22299;DHT22;11317;51.072;17.036;2022-08-04T11:31:18;34.90;22.30
22299;DHT22;11317;51.072;17.036;2022-08-04T11:33:51;35.20;4.40
22299;DHT22;11317;51.072;17.036;2022-08-04T11:39:11;34.20;99.90
22299;DHT22;11317;51.072;17.036;2022-08-04T11:42:00;34.60;4.70
22299;DHT22;11317;51.072;17.036;2022-08-04T11:44:35;34.50;6.40
22299;DHT22;11317;51.072;17.036;2022-08-04T11:47:10;33.20;47.30
22299;DHT22;11317;51.072;17.036;2022-08-04T11:49:46;34.30;7.30
22299;DHT22;11317;51.072;17.036;2022-08-04T11:52:16;34.30;7.00
22299;DHT22;11317;51.072;17.036;2022-08-04T11:54:44;34.40;8.70
22299;DHT22;11317;51.072;17.036;2022-08-04T12:04:57;33.60;19.60
22299;DHT22;11317;51.072;17.036;2022-08-04T12:13:07;33.60;8.60
22299;DHT22;11317;51.072;17.036;2022-08-04T12:18:23;33.10;10.70
22299;DHT22;11317;51.072;17.036;2022-08-04T12:20:59;33.60;99.90
22299;DHT22;11317;51.072;17.036;2022-08-04T12:23:51;33.50;46.30
22299;DHT22;11317;51.072;17.036;2022-08-04T12:26:28;33.20;14.00
22299;DHT22;11317;51.072;17.036;2022-08-04T12:28:59;33.20;99.90
22299;DHT22;11317;51.072;17.036;2022-08-04T12:31:47;32.90;99.90
22299;DHT22;11317;51.072;17.036;2022-08-04T12:34:20;33.20;13.00
22299;DHT22;11317;51.072;17.036;2022-08-04T12:36:54;32.50;99.90
22299;DHT22;11317;51.072;17.036;2022-08-04T12:39:24;33.00;13.80
22299;DHT22;11317;51.072;17.036;2022-08-04T12:44:24;33.20;12.40
22299;DHT22;11317;51.072;17.036;2022-08-04T12:46:56;33.00;14.30
22299;DHT22;11317;51.072;17.036;2022-08-04T12:49:23;33.10;13.40
22299;DHT22;11317;51.072;17.036;2022-08-04T12:54:23;32.70;1.00
22299;DHT22;11317;51.072;17.036;2022-08-04T12:56:49;32.80;13.60
22299;DHT22;11317;51.072;17.036;2022-08-04T12:59:17;32.70;99.90
22299;DHT22;11317;51.072;17.036;2022-08-04T13:01:48;32.70;13.10
22299;DHT22;11317;51.072;17.036;2022-08-04T13:04:19;32.80;14.60
22299;DHT22;11317;51.072;17.036;2022-08-04T13:07:13;29.80;14.30
22299;DHT22;11317;51.072;17.036;2022-08-04T13:09:40;33.10;13.50
22299;DHT22;11317;51.072;17.036;2022-08-04T13:12:16;32.90;11.70
22299;DHT22;11317;51.072;17.036;2022-08-04T13:14:43;31.80;99.90
22299;DHT22;11317;51.072;17.036;2022-08-04T13:19:40;32.50;13.80
22299;DHT22;11317;51.072;17.036;2022-08-04T13:22:10;32.10;99.90
22299;DHT22;11317;51.072;17.036;2022-08-04T13:24:37;32.50;12.40
22299;DHT22;11317;51.072;17.036;2022-08-04T13:27:05;32.30;99.90
22299;DHT22;11317;51.072;17.036;2022-08-04T13:29:40;32.30;11.30
22299;DHT22;11317;51.072;17.036;2022-08-04T13:32:07;32.40;25.90
22299;DHT22;11317;51.072;17.036;2022-08-04T13:34:34;32.40;24.30
22299;DHT22;11317;51.072;17.036;2022-08-04T13:37:03;32.50;25.50
22299;DHT22;11317;51.072;17.036;2022-08-04T13:39:31;32.60;24.30
22299;DHT22;11317;51.072;17.036;2022-08-04T13:42:02;32.90;49.30
22299;DHT22;11317;51.072;17.036;2022-08-04T13:44:31;32.70;25.00
22299;DHT22;11317;51.072;17.036;2022-08-04T13:47:02;32.50;23.60
22299;DHT22;11317;51.072;17.036;2022-08-04T13:49:29;32.40;24.50
22299;DHT22;11317;51.072;17.036;2022-08-04T13:51:58;32.40;23.70
22299;DHT22;11317;51.072;17.036;2022-08-04T13:54:45;32.30;99.90
22299;DHT22;11317;51.072;17.036;2022-08-04T13:57:16;32.50;28.90
22299;DHT22;11317;51.072;17.036;2022-08-04T13:59:47;32.40;23.50
22299;DHT22;11317;51.072;17.036;2022-08-04T14:04:56;32.10;11.20
22299;DHT22;11317;51.072;17.036;2022-08-04T14:07:25;32.10;25.40
22299;DHT22;11317;51.072;17.036;2022-08-04T14:09:52;32.20;99.90
22299;DHT22;11317;51.072;17.036;2022-08-04T14:12:18;32.00;26.80
22299;DHT22;11317;51.072;17.036;2022-08-04T14:14:47;32.00;26.10
22299;DHT22;11317;51.072;17.036;2022-08-04T14:17:15;32.40;99.90
22299;DHT22;11317;51.072;17.036;2022-08-04T14:19:51;32.00;25.70
22299;DHT22;11317;51.072;17.036;2022-08-04T14:25:05;32.10;26.30
22299;DHT22;11317;51.072;17.036;2022-08-04T14:27:49;32.30;25.80
22299;DHT22;11317;51.072;17.036;2022-08-04T14:33:12;32.40;99.90
22299;DHT22;11317;51.072;17.036;2022-08-04T14:35:38;32.50;25.30
22299;DHT22;11317;51.072;17.036;2022-08-04T14:38:06;32.60;25.70
22299;DHT22;11317;51.072;17.036;2022-08-04T14:40:37;32.40;26.10
22299;DHT22;11317;51.072;17.036;2022-08-04T14:45:36;32.50;99.90
22299;DHT22;11317;51.072;17.036;2022-08-04T14:48:06;32.90;99.90
22299;DHT22;11317;51.072;17.036;2022-08-04T14:50:37;32.20;26.90
22299;DHT22;11317;51.072;17.036;2022-08-04T14:53:24;32.50;99.90
22299;DHT22;11317;51.072;17.036;2022-08-04T14:55:58;32.60;99.90
22299;DHT22;11317;51.072;17.036;2022-08-04T15:00:52;32.70;99.90
22299;DHT22;11317;51.072;17.036;2022-08-04T15:03:19;32.60;27.70
22299;DHT22;11317;51.072;17.036;2022-08-04T15:05:47;32.60;25.60
22299;DHT22;11317;51.072;17.036;2022-08-04T15:08:14;32.50;26.10
22299;DHT22;11317;51.072;17.036;2022-08-04T15:10:42;32.40;45.70
22299;DHT22;11317;51.072;17.036;2022-08-04T15:13:08;32.40;26.60
22299;DHT22;11317;51.072;17.036;2022-08-04T15:15:38;32.30;27.30
22299;DHT22;11317;51.072;17.036;2022-08-04T15:18:09;32.30;99.90
22299;DHT22;11317;51.072;17.036;2022-08-04T15:20:36;32.30;27.00
22299;DHT22;11317;51.072;17.036;2022-08-04T15:23:03;32.40;27.70
22299;DHT22;11317;51.072;17.036;2022-08-04T15:25:41;32.40;47.20
22299;DHT22;11317;51.072;17.036;2022-08-04T15:28:12;32.40;27.60
22299;DHT22;11317;51.072;17.036;2022-08-04T15:30:39;31.60;99.90
22299;DHT22;11317;51.072;17.036;2022-08-04T15:33:06;32.30;27.90
22299;DHT22;11317;51.072;17.036;2022-08-04T15:35:33;32.20;27.90
22299;DHT22;11317;51.072;17.036;2022-08-04T15:38:08;32.10;27.90
22299;DHT22;11317;51.072;17.036;2022-08-04T15:40:46;32.10;27.80
22299;DHT22;11317;51.072;17.036;2022-08-04T15:45:54;32.10;29.40
22299;DHT22;11317;51.072;17.036;2022-08-04T15:48:23;32.00;31.60
22299;DHT22;11317;51.072;17.036;2022-08-04T15:51:11;32.00;34.40
22299;DHT22;11317;51.072;17.036;2022-08-04T15:58:54;31.80;34.90
22299;DHT22;11317;51.072;17.036;2022-08-04T16:01:20;31.70;35.50
22299;DHT22;11317;51.072;17.036;2022-08-04T16:03:48;31.70;36.20
22299;DHT22;11317;51.072;17.036;2022-08-04T16:06:39;31.70;36.50
22299;DHT22;11317;51.072;17.036;2022-08-04T16:09:01;31.70;36.70
22299;DHT22;11317;51.072;17.036;2022-08-04T16:11:36;31.60;36.00
22299;DHT22;11317;51.072;17.036;2022-08-04T16:14:09;31.50;38.70
22299;DHT22;11317;51.072;17.036;2022-08-04T16:19:43;31.40;38.80
22299;DHT22;11317;51.072;17.036;2022-08-04T16:22:39;31.30;36.70
22299;DHT22;11317;51.072;17.036;2022-08-04T16:25:10;31.30;38.40
22299;DHT22;11317;51.072;17.036;2022-08-04T16:27:42;31.30;38.10
22299;DHT22;11317;51.072;17.036;2022-08-04T16:30:11;31.20;39.40
22299;DHT22;11317;51.072;17.036;2022-08-04T16:32:45;31.10;38.70
22299;DHT22;11317;51.072;17.036;2022-08-04T16:35:23;31.00;40.40
22299;DHT22;11317;51.072;17.036;2022-08-04T16:38:13;31.00;40.10
22299;DHT22;11317;51.072;17.036;2022-08-04T16:40:39;31.00;42.60
22299;DHT22;11317;51.072;17.036;2022-08-04T16:43:18;31.00;41.50
22299;DHT22;11317;51.072;17.036;2022-08-04T16:46:01;30.90;42.00
22299;DHT22;11317;51.072;17.036;2022-08-04T16:48:33;30.90;42.40
22299;DHT22;11317;51.072;17.036;2022-08-04T16:51:03;30.80;44.40
22299;DHT22;11317;51.072;17.036;2022-08-04T16:53:35;30.80;44.10
22299;DHT22;11317;51.072;17.036;2022-08-04T16:56:02;30.70;43.70
22299;DHT22;11317;51.072;17.036;2022-08-04T16:58:34;30.70;45.30
22299;DHT22;11317;51.072;17.036;2022-08-04T17:01:08;30.60;43.60
22299;DHT22;11317;51.072;17.036;2022-08-04T17:03:35;30.60;45.90
22299;DHT22;11317;51.072;17.036;2022-08-04T17:06:12;30.50;46.40
22299;DHT22;11317;51.072;17.036;2022-08-04T17:08:46;30.40;46.80
22299;DHT22;11317;51.072;17.036;2022-08-04T17:11:13;30.40;47.20
22299;DHT22;11317;51.072;17.036;2022-08-04T17:13:43;30.40;49.00
22299;DHT22;11317;51.072;17.036;2022-08-04T17:16:12;30.30;50.30
22299;DHT22;11317;51.072;17.036;2022-08-04T17:18:41;30.30;50.00
22299;DHT22;11317;51.072;17.036;2022-08-04T17:21:13;30.30;50.60
22299;DHT22;11317;51.072;17.036;2022-08-04T17:23:45;30.10;50.30
22299;DHT22;11317;51.072;17.036;2022-08-04T17:26:16;30.10;74.60
22299;DHT22;11317;51.072;17.036;2022-08-04T17:28:45;30.00;50.50
22299;DHT22;11317;51.072;17.036;2022-08-04T17:31:11;29.90;51.90
22299;DHT22;11317;51.072;17.036;2022-08-04T17:33:38;29.90;52.70
22299;DHT22;11317;51.072;17.036;2022-08-04T17:36:05;29.90;53.40
22299;DHT22;11317;51.072;17.036;2022-08-04T17:38:43;29.80;53.80
22299;DHT22;11317;51.072;17.036;2022-08-04T17:41:12;29.80;54.10
22299;DHT22;11317;51.072;17.036;2022-08-04T17:46:25;29.50;55.60
22299;DHT22;11317;51.072;17.036;2022-08-04T17:49:02;29.50;56.20
22299;DHT22;11317;51.072;17.036;2022-08-04T17:51:54;29.40;56.70
22299;DHT22;11317;51.072;17.036;2022-08-04T17:54:32;29.40;57.80
22299;DHT22;11317;51.072;17.036;2022-08-04T17:57:16;29.30;59.90
22299;DHT22;11317;51.072;17.036;2022-08-04T17:59:42;29.20;58.90
22299;DHT22;11317;51.072;17.036;2022-08-04T18:02:08;29.20;59.90
22299;DHT22;11317;51.072;17.036;2022-08-04T18:07:12;29.00;61.60
22299;DHT22;11317;51.072;17.036;2022-08-04T18:09:56;28.90;88.70
22299;DHT22;11317;51.072;17.036;2022-08-04T18:12:33;28.80;64.50
22299;DHT22;11317;51.072;17.036;2022-08-04T18:15:03;28.80;64.00
22299;DHT22;11317;51.072;17.036;2022-08-04T18:17:40;28.80;65.10
22299;DHT22;11317;51.072;17.036;2022-08-04T18:20:17;28.60;66.40
22299;DHT22;11317;51.072;17.036;2022-08-04T18:22:48;28.50;68.20
22299;DHT22;11317;51.072;17.036;2022-08-04T18:25:16;28.40;69.00
22299;DHT22;11317;51.072;17.036;2022-08-04T18:30:12;28.40;71.30
22299;DHT22;11317;51.072;17.036;2022-08-04T18:32:37;28.30;74.10
22299;DHT22;11317;51.072;17.036;2022-08-04T18:35:09;28.20;73.70
22299;DHT22;11317;51.072;17.036;2022-08-04T18:37:40;28.10;74.80
22299;DHT22;11317;51.072;17.036;2022-08-04T18:40:07;28.00;76.20
22299;DHT22;11317;51.072;17.036;2022-08-04T18:42:34;27.90;77.80
22299;DHT22;11317;51.072;17.036;2022-08-04T18:45:00;27.80;79.40
22299;DHT22;11317;51.072;17.036;2022-08-04T18:47:25;27.80;80.50
22299;DHT22;11317;51.072;17.036;2022-08-04T18:49:52;27.60;82.50
22299;DHT22;11317;51.072;17.036;2022-08-04T18:52:18;27.60;85.50
22299;DHT22;11317;51.072;17.036;2022-08-04T18:54:45;27.40;99.90
22299;DHT22;11317;51.072;17.036;2022-08-04T18:57:13;27.50;99.90
22299;DHT22;11317;51.072;17.036;2022-08-04T19:04:34;27.00;99.90
22299;DHT22;11317;51.072;17.036;2022-08-04T19:14:18;26.70;99.90
22299;DHT22;11317;51.072;17.036;2022-08-04T19:16:44;26.70;99.90
22299;DHT22;11317;51.072;17.036;2022-08-04T19:24:02;26.50;99.90
22299;DHT22;11317;51.072;17.036;2022-08-04T19:28:55;27.00;94.00
22299;DHT22;11317;51.072;17.036;2022-08-04T19:31:21;26.20;95.40
22299;DHT22;11317;51.072;17.036;2022-08-04T19:33:47;26.80;96.70
22299;DHT22;11317;51.072;17.036;2022-08-04T19:36:13;26.10;98.50
22299;DHT22;11317;51.072;17.036;2022-08-04T19:41:06;26.10;99.90
22299;DHT22;11317;51.072;17.036;2022-08-04T19:43:32;25.80;99.90
22299;DHT22;11317;51.072;17.036;2022-08-04T19:48:24;25.90;99.90
22299;DHT22;11317;51.072;17.036;2022-08-04T19:55:43;25.60;99.90
22299;DHT22;11317;51.072;17.036;2022-08-04T20:00:37;25.60;99.90
22299;DHT22;11317;51.072;17.036;2022-08-04T20:03:07;25.50;99.90
22299;DHT22;11317;51.072;17.036;2022-08-04T20:10:26;25.60;99.90
22299;DHT22;11317;51.072;17.036;2022-08-04T20:20:10;25.30;1.00
22299;DHT22;11317;51.072;17.036;2022-08-04T20:22:36;25.20;1.00
22299;DHT22;11317;51.072;17.036;2022-08-04T20:25:02;25.10;99.90
22299;DHT22;11317;51.072;17.036;2022-08-04T20:29:54;24.90;99.90
22299;DHT22;11317;51.072;17.036;2022-08-04T20:32:22;24.80;99.90
22299;DHT22;11317;51.072;17.036;2022-08-04T20:34:52;25.00;1.00
22299;DHT22;11317;51.072;17.036;2022-08-04T20:37:22;24.80;1.00
22299;DHT22;11317;51.072;17.036;2022-08-04T20:39:52;24.90;99.90
22299;DHT22;11317;51.072;17.036;2022-08-04T20:42:18;24.70;99.90
22299;DHT22;11317;51.072;17.036;2022-08-04T20:52:05;24.50;99.90
22299;DHT22;11317;51.072;17.036;2022-08-04T20:56:57;24.30;1.00
22299;DHT22;11317;51.072;17.036;2022-08-04T20:59:25;24.30;1.00
22299;DHT22;11317;51.072;17.036;2022-08-04T21:04:18;24.20;1.00
22299;DHT22;11317;51.072;17.036;2022-08-04T21:06:57;24.20;99.90
22299;DHT22;11317;51.072;17.036;2022-08-04T21:09:23;24.40;99.90
22299;DHT22;11317;51.072;17.036;2022-08-04T21:26:27;23.90;99.90
22299;DHT22;11317;51.072;17.036;2022-08-04T21:31:20;23.80;1.00
22299;DHT22;11317;51.072;17.036;2022-08-04T21:36:13;23.70;99.90
22299;DHT22;11317;51.072;17.036;2022-08-04T21:38:39;23.70;1.00
22299;DHT22;11317;51.072;17.036;2022-08-04T21:41:05;24.20;1.00
22299;DHT22;11317;51.072;17.036;2022-08-04T21:55:43;23.50;1.00
22299;DHT22;11317;51.072;17.036;2022-08-04T21:58:10;23.20;1.00
22299;DHT22;11317;51.072;17.036;2022-08-04T22:00:36;23.20;1.00
22299;DHT22;11317;51.072;17.036;2022-08-04T22:03:02;23.30;1.00
22299;DHT22;11317;51.072;17.036;2022-08-04T22:10:24;23.70;1.00
22299;DHT22;11317;51.072;17.036;2022-08-04T22:12:51;23.00;99.90
22299;DHT22;11317;51.072;17.036;2022-08-04T22:20:10;22.90;1.00
22299;DHT22;11317;51.072;17.036;2022-08-04T22:22:38;22.90;1.00
22299;DHT22;11317;51.072;17.036;2022-08-04T22:25:06;23.10;1.00
22299;DHT22;11317;51.072;17.036;2022-08-04T22:27:34;22.90;1.00
22299;DHT22;11317;51.072;17.036;2022-08-04T22:30:20;22.60;1.00
22299;DHT22;11317;51.072;17.036;2022-08-04T22:32:46;22.60;1.00
22299;DHT22;11317;51.072;17.036;2022-08-04T22:35:13;22.80;1.00